Terminal Aerodrome Forecast
Issued by NWS Rapid City, SD

Home | Current Version | Previous Version | Text Only | Print | Product List | Glossary Off
Versions: 1 2 3 4 5 6 7 8 9 10 11 12 13 14 15 16 17 18

000
FTUS43 KUNR 060011 AAA
TAFRAP
TAF AMD
KRAP 060011Z 0600/0624 35018G28KT P6SM SCT030 BKN080
      TEMPO 0600/0603 SHRA BKN025
     FM060300 01012KT P6SM OVC080
     FM061200 34015KT P6SM BKN040
     FM062000 01010KT P6SM SCT050=

USA.gov is the U.S. government's official web portal to all federal, state and local government web resources and services.